CWWU

Ingenika Point Airport

Long Pond, Canada
METAR CWWU 171615Z 24010KT 10SM -DZ FEW007 OVC013 05/04 A2888 RMK SF2SC6 LAST OBS/NXT 180800Z SLP782
Observed Flight Rules
Nov-17 @ 16:15 UTC (7 hours ago) Marginal Visual Flight Rules
Wind Visibility Clouds Conditions
240° at 10 knots 10 miles
  • Few at 700' AGL
  • Overcast at 1,300' AGL
  • Light Drizzle
Temperatures Readings
Current 5°C / 41°F
Dewpoint 4°C / 39°F
Humidity 93%
Altimeter 28.88" Hg
Pressure 978.2 hPa
Elevation 13
METAR CWWU 171615Z 24010KT 10SM -DZ FEW007 OVC013 05/04 A2888 RMK SF2SC6 LAST OBS/NXT 180800Z SLP782
Observed Flight Rules
Nov-17 @ 16:15 UTC
(7 hours ago)
MVFR
Wind Visibility
240° at 10 knots 10 miles
Clouds
  • Few at 700' AGL
  • Overcast at 1,300' AGL
Conditions
  • Light Drizzle
Temperature Dewpoint
5°C / 41°F 4°C / 39°F
Humidity Altimeter Pressure
93% 28.88" Hg 978.2 hPa